sensor_id;sensor_type;location;lat;lon;timestamp;P1;durP1;ratioP1;P2;durP2;ratioP2
17496;SDS011;62150;43.582;1.456;2024-02-16T04:38:39;6.17;;;2.20;;
17496;SDS011;62150;43.582;1.456;2024-02-16T04:41:07;5.73;;;2.13;;
17496;SDS011;62150;43.582;1.456;2024-02-16T04:43:34;7.50;;;2.43;;
17496;SDS011;62150;43.582;1.456;2024-02-16T04:46:02;4.37;;;2.27;;
17496;SDS011;62150;43.582;1.456;2024-02-16T04:48:30;7.40;;;2.60;;
17496;SDS011;62150;43.582;1.456;2024-02-16T04:50:59;5.30;;;2.53;;
17496;SDS011;62150;43.582;1.456;2024-02-16T04:53:27;6.43;;;2.60;;
17496;SDS011;62150;43.582;1.456;2024-02-16T04:55:55;5.83;;;2.70;;
17496;SDS011;62150;43.582;1.456;2024-02-16T04:58:23;6.70;;;2.73;;
17496;SDS011;62150;43.582;1.456;2024-02-16T05:00:51;9.23;;;2.93;;
17496;SDS011;62150;43.582;1.456;2024-02-16T05:03:18;7.97;;;2.90;;
17496;SDS011;62150;43.582;1.456;2024-02-16T05:05:46;8.23;;;2.80;;
17496;SDS011;62150;43.582;1.456;2024-02-16T05:08:13;8.23;;;2.90;;
17496;SDS011;62150;43.582;1.456;2024-02-16T05:10:41;6.90;;;2.77;;
17496;SDS011;62150;43.582;1.456;2024-02-16T05:13:10;6.30;;;2.77;;
17496;SDS011;62150;43.582;1.456;2024-02-16T05:15:39;8.67;;;3.20;;
17496;SDS011;62150;43.582;1.456;2024-02-16T05:18:06;10.40;;;3.10;;
17496;SDS011;62150;43.582;1.456;2024-02-16T05:20:37;11.60;;;3.60;;
17496;SDS011;62150;43.582;1.456;2024-02-16T05:23:06;8.87;;;3.50;;
17496;SDS011;62150;43.582;1.456;2024-02-16T05:25:33;10.50;;;3.70;;
17496;SDS011;62150;43.582;1.456;2024-02-16T05:28:01;8.63;;;3.27;;
17496;SDS011;62150;43.582;1.456;2024-02-16T05:30:30;10.13;;;4.23;;
17496;SDS011;62150;43.582;1.456;2024-02-16T05:32:57;11.37;;;3.77;;
17496;SDS011;62150;43.582;1.456;2024-02-16T05:35:25;8.20;;;3.30;;
17496;SDS011;62150;43.582;1.456;2024-02-16T05:37:54;7.60;;;3.27;;
17496;SDS011;62150;43.582;1.456;2024-02-16T05:40:22;10.03;;;3.37;;
17496;SDS011;62150;43.582;1.456;2024-02-16T05:42:52;7.33;;;3.00;;
17496;SDS011;62150;43.582;1.456;2024-02-16T05:45:23;5.80;;;2.63;;
17496;SDS011;62150;43.582;1.456;2024-02-16T05:47:52;5.47;;;2.70;;
17496;SDS011;62150;43.582;1.456;2024-02-16T05:50:20;6.60;;;2.80;;
17496;SDS011;62150;43.582;1.456;2024-02-16T05:52:48;7.07;;;2.67;;
17496;SDS011;62150;43.582;1.456;2024-02-16T05:55:16;6.30;;;2.90;;
17496;SDS011;62150;43.582;1.456;2024-02-16T05:57:44;7.00;;;2.90;;
17496;SDS011;62150;43.582;1.456;2024-02-16T06:00:13;5.40;;;2.80;;
17496;SDS011;62150;43.582;1.456;2024-02-16T06:02:40;5.13;;;2.40;;
17496;SDS011;62150;43.582;1.456;2024-02-16T06:05:09;3.40;;;2.03;;
17496;SDS011;62150;43.582;1.456;2024-02-16T06:07:37;5.77;;;2.07;;
17496;SDS011;62150;43.582;1.456;2024-02-16T06:10:06;4.17;;;2.00;;
17496;SDS011;62150;43.582;1.456;2024-02-16T06:12:36;3.53;;;1.90;;
17496;SDS011;62150;43.582;1.456;2024-02-16T06:15:04;4.50;;;2.00;;
17496;SDS011;62150;43.582;1.456;2024-02-16T06:17:32;4.17;;;1.90;;
17496;SDS011;62150;43.582;1.456;2024-02-16T06:20:01;2.47;;;1.80;;
17496;SDS011;62150;43.582;1.456;2024-02-16T06:22:31;4.37;;;1.93;;
17496;SDS011;62150;43.582;1.456;2024-02-16T06:24:59;3.97;;;2.13;;
17496;SDS011;62150;43.582;1.456;2024-02-16T06:27:27;4.00;;;1.87;;
17496;SDS011;62150;43.582;1.456;2024-02-16T06:29:54;4.83;;;1.90;;
17496;SDS011;62150;43.582;1.456;2024-02-16T06:32:22;4.47;;;1.80;;
17496;SDS011;62150;43.582;1.456;2024-02-16T06:34:49;4.23;;;2.03;;
17496;SDS011;62150;43.582;1.456;2024-02-16T06:37:17;4.73;;;1.73;;
17496;SDS011;62150;43.582;1.456;2024-02-16T06:39:46;4.17;;;2.10;;
17496;SDS011;62150;43.582;1.456;2024-02-16T06:42:14;4.30;;;1.80;;
17496;SDS011;62150;43.582;1.456;2024-02-16T06:44:41;3.67;;;1.70;;
17496;SDS011;62150;43.582;1.456;2024-02-16T06:47:09;2.97;;;1.70;;
17496;SDS011;62150;43.582;1.456;2024-02-16T06:49:36;2.87;;;1.77;;
17496;SDS011;62150;43.582;1.456;2024-02-16T06:52:04;3.03;;;1.80;;
17496;SDS011;62150;43.582;1.456;2024-02-16T06:54:34;4.17;;;1.90;;
17496;SDS011;62150;43.582;1.456;2024-02-16T06:57:03;4.80;;;2.00;;
17496;SDS011;62150;43.582;1.456;2024-02-16T06:59:31;3.27;;;1.77;;
17496;SDS011;62150;43.582;1.456;2024-02-16T07:01:58;3.50;;;1.80;;
17496;SDS011;62150;43.582;1.456;2024-02-16T07:04:26;5.43;;;1.90;;
17496;SDS011;62150;43.582;1.456;2024-02-16T07:06:53;3.87;;;1.90;;
17496;SDS011;62150;43.582;1.456;2024-02-16T07:09:21;5.03;;;2.00;;
17496;SDS011;62150;43.582;1.456;2024-02-16T07:11:48;3.37;;;1.93;;
17496;SDS011;62150;43.582;1.456;2024-02-16T07:14:18;3.53;;;1.97;;
17496;SDS011;62150;43.582;1.456;2024-02-16T07:16:45;3.60;;;1.80;;
17496;SDS011;62150;43.582;1.456;2024-02-16T07:19:13;5.17;;;2.00;;
17496;SDS011;62150;43.582;1.456;2024-02-16T07:21:40;5.83;;;1.87;;
17496;SDS011;62150;43.582;1.456;2024-02-16T07:24:09;4.20;;;1.93;;
17496;SDS011;62150;43.582;1.456;2024-02-16T07:26:37;5.30;;;2.00;;
17496;SDS011;62150;43.582;1.456;2024-02-16T07:29:04;4.53;;;2.00;;
17496;SDS011;62150;43.582;1.456;2024-02-16T07:31:33;5.20;;;2.00;;
17496;SDS011;62150;43.582;1.456;2024-02-16T07:34:01;3.87;;;2.00;;
17496;SDS011;62150;43.582;1.456;2024-02-16T07:36:29;5.53;;;2.20;;
17496;SDS011;62150;43.582;1.456;2024-02-16T07:38:57;5.47;;;2.40;;
17496;SDS011;62150;43.582;1.456;2024-02-16T07:41:24;4.57;;;2.23;;
17496;SDS011;62150;43.582;1.456;2024-02-16T07:43:53;7.30;;;2.33;;
17496;SDS011;62150;43.582;1.456;2024-02-16T07:46:20;6.07;;;2.37;;
17496;SDS011;62150;43.582;1.456;2024-02-16T07:48:50;5.57;;;2.27;;
17496;SDS011;62150;43.582;1.456;2024-02-16T07:51:17;5.83;;;2.23;;
17496;SDS011;62150;43.582;1.456;2024-02-16T07:53:45;4.40;;;2.20;;
17496;SDS011;62150;43.582;1.456;2024-02-16T07:56:12;4.53;;;2.30;;
17496;SDS011;62150;43.582;1.456;2024-02-16T07:58:41;5.93;;;2.20;;
17496;SDS011;62150;43.582;1.456;2024-02-16T08:01:09;7.27;;;2.47;;
17496;SDS011;62150;43.582;1.456;2024-02-16T08:03:40;5.50;;;2.27;;
17496;SDS011;62150;43.582;1.456;2024-02-16T08:06:09;5.13;;;2.33;;
17496;SDS011;62150;43.582;1.456;2024-02-16T08:08:37;3.70;;;2.20;;
17496;SDS011;62150;43.582;1.456;2024-02-16T08:11:04;4.33;;;2.13;;
17496;SDS011;62150;43.582;1.456;2024-02-16T08:13:32;4.97;;;2.20;;
17496;SDS011;62150;43.582;1.456;2024-02-16T08:15:59;4.63;;;1.97;;
17496;SDS011;62150;43.582;1.456;2024-02-16T08:18:32;5.03;;;2.30;;
17496;SDS011;62150;43.582;1.456;2024-02-16T08:20:59;6.73;;;2.50;;
17496;SDS011;62150;43.582;1.456;2024-02-16T08:23:28;5.40;;;2.50;;
17496;SDS011;62150;43.582;1.456;2024-02-16T08:25:56;6.00;;;2.60;;
17496;SDS011;62150;43.582;1.456;2024-02-16T08:28:25;8.97;;;2.90;;
17496;SDS011;62150;43.582;1.456;2024-02-16T08:30:53;6.53;;;2.80;;
17496;SDS011;62150;43.582;1.456;2024-02-16T08:33:21;7.77;;;3.00;;
17496;SDS011;62150;43.582;1.456;2024-02-16T08:35:49;6.93;;;2.87;;
17496;SDS011;62150;43.582;1.456;2024-02-16T08:38:16;6.97;;;2.97;;
17496;SDS011;62150;43.582;1.456;2024-02-16T08:40:45;6.93;;;3.20;;
17496;SDS011;62150;43.582;1.456;2024-02-16T08:43:13;8.20;;;3.47;;
17496;SDS011;62150;43.582;1.456;2024-02-16T08:45:41;8.50;;;3.80;;
17496;SDS011;62150;43.582;1.456;2024-02-16T08:48:08;9.27;;;4.03;;
17496;SDS011;62150;43.582;1.456;2024-02-16T08:50:35;9.80;;;4.50;;
17496;SDS011;62150;43.582;1.456;2024-02-16T08:53:03;9.33;;;4.50;;
17496;SDS011;62150;43.582;1.456;2024-02-16T08:55:31;10.37;;;4.80;;
17496;SDS011;62150;43.582;1.456;2024-02-16T08:58:00;10.20;;;4.47;;
17496;SDS011;62150;43.582;1.456;2024-02-16T09:00:27;10.30;;;4.43;;
17496;SDS011;62150;43.582;1.456;2024-02-16T09:02:55;9.63;;;4.13;;
17496;SDS011;62150;43.582;1.456;2024-02-16T09:05:23;9.50;;;4.00;;
17496;SDS011;62150;43.582;1.456;2024-02-16T09:07:50;11.53;;;4.13;;
17496;SDS011;62150;43.582;1.456;2024-02-16T09:10:18;10.30;;;3.50;;
17496;SDS011;62150;43.582;1.456;2024-02-16T09:12:46;8.10;;;3.50;;
17496;SDS011;62150;43.582;1.456;2024-02-16T09:15:14;6.97;;;2.97;;
17496;SDS011;62150;43.582;1.456;2024-02-16T09:17:43;9.77;;;3.97;;
17496;SDS011;62150;43.582;1.456;2024-02-16T09:20:11;8.57;;;3.37;;
17496;SDS011;62150;43.582;1.456;2024-02-16T09:22:40;10.70;;;4.30;;
17496;SDS011;62150;43.582;1.456;2024-02-16T09:25:07;9.57;;;3.70;;
17496;SDS011;62150;43.582;1.456;2024-02-16T09:27:35;7.77;;;3.17;;
17496;SDS011;62150;43.582;1.456;2024-02-16T09:30:06;6.57;;;2.83;;
17496;SDS011;62150;43.582;1.456;2024-02-16T09:32:38;7.77;;;3.00;;
17496;SDS011;62150;43.582;1.456;2024-02-16T09:35:06;6.23;;;2.20;;
17496;SDS011;62150;43.582;1.456;2024-02-16T09:37:34;4.77;;;2.17;;
17496;SDS011;62150;43.582;1.456;2024-02-16T09:40:03;4.40;;;2.10;;
17496;SDS011;62150;43.582;1.456;2024-02-16T09:42:33;4.23;;;1.90;;
17496;SDS011;62150;43.582;1.456;2024-02-16T09:45:05;4.10;;;1.90;;
17496;SDS011;62150;43.582;1.456;2024-02-16T09:47:38;4.53;;;2.00;;
17496;SDS011;62150;43.582;1.456;2024-02-16T09:50:07;5.10;;;2.10;;
17496;SDS011;62150;43.582;1.456;2024-02-16T09:52:37;3.87;;;1.90;;
17496;SDS011;62150;43.582;1.456;2024-02-16T09:55:06;6.43;;;2.07;;
17496;SDS011;62150;43.582;1.456;2024-02-16T09:57:36;3.63;;;1.90;;
17496;SDS011;62150;43.582;1.456;2024-02-16T10:00:04;3.50;;;1.90;;
17496;SDS011;62150;43.582;1.456;2024-02-16T10:02:40;3.63;;;1.70;;
17496;SDS011;62150;43.582;1.456;2024-02-16T10:05:12;4.43;;;1.80;;
17496;SDS011;62150;43.582;1.456;2024-02-16T10:07:42;5.73;;;2.10;;
17496;SDS011;62150;43.582;1.456;2024-02-16T10:10:22;4.50;;;1.77;;
17496;SDS011;62150;43.582;1.456;2024-02-16T10:13:00;5.03;;;1.77;;
17496;SDS011;62150;43.582;1.456;2024-02-16T10:15:29;6.80;;;2.00;;
17496;SDS011;62150;43.582;1.456;2024-02-16T10:17:58;5.90;;;1.80;;
17496;SDS011;62150;43.582;1.456;2024-02-16T10:20:26;3.17;;;1.83;;
17496;SDS011;62150;43.582;1.456;2024-02-16T10:23:06;4.47;;;1.93;;
17496;SDS011;62150;43.582;1.456;2024-02-16T10:25:35;6.23;;;1.90;;
17496;SDS011;62150;43.582;1.456;2024-02-16T10:28:05;8.63;;;2.10;;
17496;SDS011;62150;43.582;1.456;2024-02-16T10:30:34;7.77;;;2.20;;
17496;SDS011;62150;43.582;1.456;2024-02-16T10:33:06;6.60;;;1.93;;
17496;SDS011;62150;43.582;1.456;2024-02-16T10:35:34;8.90;;;2.10;;
17496;SDS011;62150;43.582;1.456;2024-02-16T10:38:02;8.60;;;2.40;;
17496;SDS011;62150;43.582;1.456;2024-02-16T10:40:36;8.13;;;2.10;;
17496;SDS011;62150;43.582;1.456;2024-02-16T10:43:05;7.77;;;1.90;;
17496;SDS011;62150;43.582;1.456;2024-02-16T10:45:34;7.87;;;2.07;;
17496;SDS011;62150;43.582;1.456;2024-02-16T10:48:03;11.37;;;2.23;;
17496;SDS011;62150;43.582;1.456;2024-02-16T10:50:34;11.07;;;2.17;;
17496;SDS011;62150;43.582;1.456;2024-02-16T10:53:03;8.87;;;1.90;;
17496;SDS011;62150;43.582;1.456;2024-02-16T10:55:35;7.23;;;2.00;;
17496;SDS011;62150;43.582;1.456;2024-02-16T10:58:03;6.20;;;1.70;;
17496;SDS011;62150;43.582;1.456;2024-02-16T11:00:33;3.70;;;1.60;;
17496;SDS011;62150;43.582;1.456;2024-02-16T11:03:02;3.77;;;1.37;;
17496;SDS011;62150;43.582;1.456;2024-02-16T11:05:33;2.93;;;1.43;;
17496;SDS011;62150;43.582;1.456;2024-02-16T11:08:02;4.73;;;1.60;;
17496;SDS011;62150;43.582;1.456;2024-02-16T11:10:30;4.80;;;1.40;;
17496;SDS011;62150;43.582;1.456;2024-02-16T11:13:01;3.87;;;1.40;;
17496;SDS011;62150;43.582;1.456;2024-02-16T11:15:31;5.60;;;1.60;;
17496;SDS011;62150;43.582;1.456;2024-02-16T11:18:00;5.67;;;1.70;;
17496;SDS011;62150;43.582;1.456;2024-02-16T11:20:28;6.37;;;1.90;;
17496;SDS011;62150;43.582;1.456;2024-02-16T11:23:05;7.87;;;2.13;;
17496;SDS011;62150;43.582;1.456;2024-02-16T11:25:34;6.50;;;1.80;;
17496;SDS011;62150;43.582;1.456;2024-02-16T11:28:03;7.83;;;1.70;;
17496;SDS011;62150;43.582;1.456;2024-02-16T11:30:34;7.77;;;1.90;;
17496;SDS011;62150;43.582;1.456;2024-02-16T11:33:02;8.70;;;1.87;;
17496;SDS011;62150;43.582;1.456;2024-02-16T11:35:30;7.63;;;2.03;;
17496;SDS011;62150;43.582;1.456;2024-02-16T11:37:59;6.87;;;1.90;;
17496;SDS011;62150;43.582;1.456;2024-02-16T11:40:27;8.60;;;1.97;;
17496;SDS011;62150;43.582;1.456;2024-02-16T11:42:58;6.93;;;1.97;;
17496;SDS011;62150;43.582;1.456;2024-02-16T11:45:26;7.90;;;2.00;;
17496;SDS011;62150;43.582;1.456;2024-02-16T11:50:37;6.80;;;1.97;;
17496;SDS011;62150;43.582;1.456;2024-02-16T11:53:06;5.00;;;1.90;;
17496;SDS011;62150;43.582;1.456;2024-02-16T11:55:33;6.93;;;1.90;;
17496;SDS011;62150;43.582;1.456;2024-02-16T11:58:01;7.33;;;2.17;;
17496;SDS011;62150;43.582;1.456;2024-02-16T12:00:29;6.83;;;1.97;;
17496;SDS011;62150;43.582;1.456;2024-02-16T12:02:59;5.93;;;2.00;;
17496;SDS011;62150;43.582;1.456;2024-02-16T12:05:27;8.53;;;2.30;;
17496;SDS011;62150;43.582;1.456;2024-02-16T12:07:57;7.77;;;2.20;;
17496;SDS011;62150;43.582;1.456;2024-02-16T12:10:27;7.00;;;2.07;;
17496;SDS011;62150;43.582;1.456;2024-02-16T12:12:55;7.60;;;2.10;;
17496;SDS011;62150;43.582;1.456;2024-02-16T12:15:22;8.70;;;2.20;;
17496;SDS011;62150;43.582;1.456;2024-02-16T12:17:58;9.50;;;2.40;;
17496;SDS011;62150;43.582;1.456;2024-02-16T12:20:26;7.63;;;2.07;;
17496;SDS011;62150;43.582;1.456;2024-02-16T12:22:54;9.23;;;2.17;;
17496;SDS011;62150;43.582;1.456;2024-02-16T12:25:21;8.43;;;2.20;;
17496;SDS011;62150;43.582;1.456;2024-02-16T12:27:50;8.50;;;2.30;;
17496;SDS011;62150;43.582;1.456;2024-02-16T12:30:18;8.63;;;2.10;;
17496;SDS011;62150;43.582;1.456;2024-02-16T12:32:46;8.80;;;2.10;;
17496;SDS011;62150;43.582;1.456;2024-02-16T12:35:13;7.03;;;2.10;;
17496;SDS011;62150;43.582;1.456;2024-02-16T12:37:41;9.10;;;2.00;;
17496;SDS011;62150;43.582;1.456;2024-02-16T12:40:08;7.93;;;2.10;;
17496;SDS011;62150;43.582;1.456;2024-02-16T12:42:36;6.33;;;2.07;;
17496;SDS011;62150;43.582;1.456;2024-02-16T12:45:06;5.33;;;1.90;;
17496;SDS011;62150;43.582;1.456;2024-02-16T12:47:33;9.73;;;2.17;;
17496;SDS011;62150;43.582;1.456;2024-02-16T12:50:02;6.30;;;1.80;;
17496;SDS011;62150;43.582;1.456;2024-02-16T12:52:30;8.17;;;2.00;;
17496;SDS011;62150;43.582;1.456;2024-02-16T12:54:59;8.87;;;2.53;;
17496;SDS011;62150;43.582;1.456;2024-02-16T12:57:26;8.50;;;2.27;;
17496;SDS011;62150;43.582;1.456;2024-02-16T12:59:54;7.37;;;2.10;;
17496;SDS011;62150;43.582;1.456;2024-02-16T13:02:23;9.40;;;2.07;;
17496;SDS011;62150;43.582;1.456;2024-02-16T13:04:51;8.53;;;2.30;;
17496;SDS011;62150;43.582;1.456;2024-02-16T13:07:19;6.83;;;2.00;;
17496;SDS011;62150;43.582;1.456;2024-02-16T13:09:47;9.07;;;2.17;;
17496;SDS011;62150;43.582;1.456;2024-02-16T13:12:15;10.67;;;2.40;;
17496;SDS011;62150;43.582;1.456;2024-02-16T13:14:45;10.07;;;2.23;;
17496;SDS011;62150;43.582;1.456;2024-02-16T13:17:13;8.07;;;2.40;;
17496;SDS011;62150;43.582;1.456;2024-02-16T13:19:42;8.57;;;2.20;;
17496;SDS011;62150;43.582;1.456;2024-02-16T13:22:09;9.23;;;2.50;;
17496;SDS011;62150;43.582;1.456;2024-02-16T13:24:37;9.53;;;2.20;;
17496;SDS011;62150;43.582;1.456;2024-02-16T13:27:04;6.93;;;2.00;;
17496;SDS011;62150;43.582;1.456;2024-02-16T13:29:32;8.03;;;2.13;;
17496;SDS011;62150;43.582;1.456;2024-02-16T13:32:00;6.67;;;2.00;;
17496;SDS011;62150;43.582;1.456;2024-02-16T13:34:28;8.93;;;2.60;;
17496;SDS011;62150;43.582;1.456;2024-02-16T13:36:57;6.77;;;2.17;;
17496;SDS011;62150;43.582;1.456;2024-02-16T13:39:25;6.93;;;2.40;;
17496;SDS011;62150;43.582;1.456;2024-02-16T13:41:53;9.37;;;2.37;;
17496;SDS011;62150;43.582;1.456;2024-02-16T13:44:22;6.57;;;2.10;;
17496;SDS011;62150;43.582;1.456;2024-02-16T13:46:50;7.73;;;2.13;;
17496;SDS011;62150;43.582;1.456;2024-02-16T13:49:18;9.07;;;2.20;;
17496;SDS011;62150;43.582;1.456;2024-02-16T13:51:45;8.27;;;2.13;;
17496;SDS011;62150;43.582;1.456;2024-02-16T13:54:14;6.40;;;2.10;;
17496;SDS011;62150;43.582;1.456;2024-02-16T13:56:42;8.50;;;2.00;;
17496;SDS011;62150;43.582;1.456;2024-02-16T13:59:10;7.53;;;2.20;;
17496;SDS011;62150;43.582;1.456;2024-02-16T14:01:37;7.10;;;2.00;;
17496;SDS011;62150;43.582;1.456;2024-02-16T14:04:05;9.40;;;2.40;;
17496;SDS011;62150;43.582;1.456;2024-02-16T14:06:32;10.00;;;2.10;;
17496;SDS011;62150;43.582;1.456;2024-02-16T14:09:01;7.03;;;2.00;;
17496;SDS011;62150;43.582;1.456;2024-02-16T14:11:35;9.07;;;2.47;;
17496;SDS011;62150;43.582;1.456;2024-02-16T14:14:02;5.63;;;1.80;;
17496;SDS011;62150;43.582;1.456;2024-02-16T14:16:30;4.60;;;1.60;;
17496;SDS011;62150;43.582;1.456;2024-02-16T14:18:58;4.60;;;1.80;;
17496;SDS011;62150;43.582;1.456;2024-02-16T14:21:26;4.27;;;1.60;;
17496;SDS011;62150;43.582;1.456;2024-02-16T14:23:53;3.33;;;1.57;;
17496;SDS011;62150;43.582;1.456;2024-02-16T14:26:21;3.07;;;1.60;;
17496;SDS011;62150;43.582;1.456;2024-02-16T14:28:50;3.87;;;1.63;;
17496;SDS011;62150;43.582;1.456;2024-02-16T14:31:17;2.73;;;1.67;;
17496;SDS011;62150;43.582;1.456;2024-02-16T14:33:47;4.27;;;1.40;;
17496;SDS011;62150;43.582;1.456;2024-02-16T14:36:15;3.10;;;1.70;;
17496;SDS011;62150;43.582;1.456;2024-02-16T14:38:42;4.70;;;1.60;;
17496;SDS011;62150;43.582;1.456;2024-02-16T14:41:10;2.50;;;1.60;;
17496;SDS011;62150;43.582;1.456;2024-02-16T14:43:41;2.63;;;1.50;;
17496;SDS011;62150;43.582;1.456;2024-02-16T14:46:10;5.13;;;1.60;;
17496;SDS011;62150;43.582;1.456;2024-02-16T14:48:39;2.67;;;1.50;;
17496;SDS011;62150;43.582;1.456;2024-02-16T14:51:06;3.43;;;1.80;;
17496;SDS011;62150;43.582;1.456;2024-02-16T14:53:34;3.60;;;1.67;;
17496;SDS011;62150;43.582;1.456;2024-02-16T14:56:01;3.67;;;1.50;;
17496;SDS011;62150;43.582;1.456;2024-02-16T14:58:30;4.20;;;1.60;;
17496;SDS011;62150;43.582;1.456;2024-02-16T15:00:58;4.43;;;1.60;;
17496;SDS011;62150;43.582;1.456;2024-02-16T15:03:27;3.13;;;1.70;;
17496;SDS011;62150;43.582;1.456;2024-02-16T15:05:55;2.37;;;1.57;;
17496;SDS011;62150;43.582;1.456;2024-02-16T15:08:23;2.83;;;1.60;;
17496;SDS011;62150;43.582;1.456;2024-02-16T15:10:52;2.87;;;1.60;;
17496;SDS011;62150;43.582;1.456;2024-02-16T15:13:19;4.43;;;1.60;;
17496;SDS011;62150;43.582;1.456;2024-02-16T15:15:48;6.57;;;1.80;;
17496;SDS011;62150;43.582;1.456;2024-02-16T15:18:16;2.87;;;1.70;;
17496;SDS011;62150;43.582;1.456;2024-02-16T15:20:45;3.00;;;1.80;;
17496;SDS011;62150;43.582;1.456;2024-02-16T15:23:12;4.20;;;1.90;;
17496;SDS011;62150;43.582;1.456;2024-02-16T15:25:40;3.40;;;1.70;;
17496;SDS011;62150;43.582;1.456;2024-02-16T15:28:07;3.43;;;1.80;;
17496;SDS011;62150;43.582;1.456;2024-02-16T15:30:35;4.40;;;1.90;;
17496;SDS011;62150;43.582;1.456;2024-02-16T15:33:02;3.27;;;1.70;;
17496;SDS011;62150;43.582;1.456;2024-02-16T15:35:30;3.90;;;1.70;;
17496;SDS011;62150;43.582;1.456;2024-02-16T15:37:59;3.43;;;1.60;;
17496;SDS011;62150;43.582;1.456;2024-02-16T15:40:27;3.90;;;1.70;;
17496;SDS011;62150;43.582;1.456;2024-02-16T15:43:01;3.37;;;1.60;;
17496;SDS011;62150;43.582;1.456;2024-02-16T15:45:30;3.30;;;1.70;;
17496;SDS011;62150;43.582;1.456;2024-02-16T15:48:00;2.83;;;1.70;;
17496;SDS011;62150;43.582;1.456;2024-02-16T15:50:27;2.57;;;1.53;;
17496;SDS011;62150;43.582;1.456;2024-02-16T15:52:55;5.17;;;1.73;;
17496;SDS011;62150;43.582;1.456;2024-02-16T15:55:24;3.70;;;1.70;;
17496;SDS011;62150;43.582;1.456;2024-02-16T15:57:52;3.93;;;1.77;;
17496;SDS011;62150;43.582;1.456;2024-02-16T16:00:20;2.93;;;1.80;;
17496;SDS011;62150;43.582;1.456;2024-02-16T16:02:47;3.00;;;1.70;;
17496;SDS011;62150;43.582;1.456;2024-02-16T16:05:15;2.73;;;1.60;;
17496;SDS011;62150;43.582;1.456;2024-02-16T16:07:43;2.33;;;1.70;;
17496;SDS011;62150;43.582;1.456;2024-02-16T16:10:10;3.43;;;1.70;;
17496;SDS011;62150;43.582;1.456;2024-02-16T16:12:42;1.93;;;1.67;;
17496;SDS011;62150;43.582;1.456;2024-02-16T16:15:09;2.47;;;1.60;;
17496;SDS011;62150;43.582;1.456;2024-02-16T16:17:37;2.50;;;1.30;;
17496;SDS011;62150;43.582;1.456;2024-02-16T16:20:05;2.60;;;1.50;;
17496;SDS011;62150;43.582;1.456;2024-02-16T16:22:33;2.17;;;1.43;;
17496;SDS011;62150;43.582;1.456;2024-02-16T16:25:01;2.87;;;1.50;;
17496;SDS011;62150;43.582;1.456;2024-02-16T16:27:29;3.03;;;1.40;;
17496;SDS011;62150;43.582;1.456;2024-02-16T16:29:58;1.87;;;1.50;;
17496;SDS011;62150;43.582;1.456;2024-02-16T16:32:26;1.77;;;1.40;;
17496;SDS011;62150;43.582;1.456;2024-02-16T16:34:54;1.73;;;1.50;;
17496;SDS011;62150;43.582;1.456;2024-02-16T16:37:22;2.40;;;1.63;;
17496;SDS011;62150;43.582;1.456;2024-02-16T16:39:49;3.50;;;1.60;;
17496;SDS011;62150;43.582;1.456;2024-02-16T16:42:17;3.80;;;1.90;;
17496;SDS011;62150;43.582;1.456;2024-02-16T16:44:44;2.73;;;1.70;;
17496;SDS011;62150;43.582;1.456;2024-02-16T16:47:14;2.70;;;1.90;;
17496;SDS011;62150;43.582;1.456;2024-02-16T16:49:41;2.80;;;1.73;;
17496;SDS011;62150;43.582;1.456;2024-02-16T16:52:09;3.20;;;1.60;;
17496;SDS011;62150;43.582;1.456;2024-02-16T16:54:37;2.37;;;1.80;;
17496;SDS011;62150;43.582;1.456;2024-02-16T16:57:05;4.33;;;2.00;;
17496;SDS011;62150;43.582;1.456;2024-02-16T16:59:33;3.43;;;1.90;;
17496;SDS011;62150;43.582;1.456;2024-02-16T17:02:01;4.30;;;1.90;;
17496;SDS011;62150;43.582;1.456;2024-02-16T17:04:30;4.83;;;2.00;;
17496;SDS011;62150;43.582;1.456;2024-02-16T17:06:58;3.17;;;1.80;;
17496;SDS011;62150;43.582;1.456;2024-02-16T17:09:26;3.57;;;1.97;;
17496;SDS011;62150;43.582;1.456;2024-02-16T17:11:54;5.73;;;2.00;;
17496;SDS011;62150;43.582;1.456;2024-02-16T17:14:22;4.13;;;2.07;;
17496;SDS011;62150;43.582;1.456;2024-02-16T17:16:50;4.30;;;2.00;;
17496;SDS011;62150;43.582;1.456;2024-02-16T17:19:18;5.97;;;1.93;;
17496;SDS011;62150;43.582;1.456;2024-02-16T17:21:47;5.17;;;2.30;;
17496;SDS011;62150;43.582;1.456;2024-02-16T17:24:15;4.77;;;2.00;;
17496;SDS011;62150;43.582;1.456;2024-02-16T17:26:42;5.83;;;2.20;;
17496;SDS011;62150;43.582;1.456;2024-02-16T17:29:11;5.30;;;2.40;;
17496;SDS011;62150;43.582;1.456;2024-02-16T17:31:39;5.97;;;2.30;;
17496;SDS011;62150;43.582;1.456;2024-02-16T17:34:07;5.00;;;2.30;;
17496;SDS011;62150;43.582;1.456;2024-02-16T17:36:34;4.97;;;2.40;;
17496;SDS011;62150;43.582;1.456;2024-02-16T17:39:03;6.03;;;2.30;;
17496;SDS011;62150;43.582;1.456;2024-02-16T17:41:31;6.10;;;2.30;;
17496;SDS011;62150;43.582;1.456;2024-02-16T17:43:58;4.83;;;2.33;;
17496;SDS011;62150;43.582;1.456;2024-02-16T17:46:26;8.20;;;2.57;;
17496;SDS011;62150;43.582;1.456;2024-02-16T17:48:54;7.37;;;2.50;;
17496;SDS011;62150;43.582;1.456;2024-02-16T17:51:22;7.10;;;2.60;;
17496;SDS011;62150;43.582;1.456;2024-02-16T17:53:49;6.67;;;2.33;;
17496;SDS011;62150;43.582;1.456;2024-02-16T17:56:19;6.43;;;2.40;;
17496;SDS011;62150;43.582;1.456;2024-02-16T17:58:46;5.23;;;2.20;;
17496;SDS011;62150;43.582;1.456;2024-02-16T18:01:14;6.87;;;2.40;;
17496;SDS011;62150;43.582;1.456;2024-02-16T18:03:42;3.73;;;2.00;;
17496;SDS011;62150;43.582;1.456;2024-02-16T18:06:09;6.97;;;2.20;;
17496;SDS011;62150;43.582;1.456;2024-02-16T18:08:37;5.73;;;2.10;;
17496;SDS011;62150;43.582;1.456;2024-02-16T18:11:05;6.57;;;2.00;;
17496;SDS011;62150;43.582;1.456;2024-02-16T18:13:34;4.97;;;1.90;;
17496;SDS011;62150;43.582;1.456;2024-02-16T18:16:01;5.70;;;1.93;;
17496;SDS011;62150;43.582;1.456;2024-02-16T18:18:29;6.20;;;2.27;;
17496;SDS011;62150;43.582;1.456;2024-02-16T18:20:57;6.03;;;2.00;;
17496;SDS011;62150;43.582;1.456;2024-02-16T18:23:25;7.33;;;2.57;;
17496;SDS011;62150;43.582;1.456;2024-02-16T18:25:53;5.87;;;2.13;;
17496;SDS011;62150;43.582;1.456;2024-02-16T18:28:21;7.60;;;2.40;;
17496;SDS011;62150;43.582;1.456;2024-02-16T18:30:50;7.73;;;2.20;;
17496;SDS011;62150;43.582;1.456;2024-02-16T18:33:18;7.47;;;2.70;;
17496;SDS011;62150;43.582;1.456;2024-02-16T18:35:47;5.93;;;2.50;;
17496;SDS011;62150;43.582;1.456;2024-02-16T18:38:15;5.03;;;2.57;;
17496;SDS011;62150;43.582;1.456;2024-02-16T18:40:42;7.60;;;2.60;;
17496;SDS011;62150;43.582;1.456;2024-02-16T18:43:10;7.43;;;2.57;;
17496;SDS011;62150;43.582;1.456;2024-02-16T18:45:38;8.43;;;3.00;;
17496;SDS011;62150;43.582;1.456;2024-02-16T18:48:07;6.53;;;2.80;;
17496;SDS011;62150;43.582;1.456;2024-02-16T18:50:35;9.07;;;2.87;;
17496;SDS011;62150;43.582;1.456;2024-02-16T18:53:02;6.67;;;2.73;;
17496;SDS011;62150;43.582;1.456;2024-02-16T18:55:30;9.47;;;2.90;;
17496;SDS011;62150;43.582;1.456;2024-02-16T18:57:57;9.47;;;3.00;;
17496;SDS011;62150;43.582;1.456;2024-02-16T19:00:25;8.43;;;2.80;;
17496;SDS011;62150;43.582;1.456;2024-02-16T19:02:53;9.23;;;3.33;;
17496;SDS011;62150;43.582;1.456;2024-02-16T19:05:22;9.70;;;3.77;;
17496;SDS011;62150;43.582;1.456;2024-02-16T19:07:50;11.70;;;4.63;;
17496;SDS011;62150;43.582;1.456;2024-02-16T19:10:17;11.73;;;5.47;;
17496;SDS011;62150;43.582;1.456;2024-02-16T19:12:46;12.80;;;5.30;;
17496;SDS011;62150;43.582;1.456;2024-02-16T19:15:14;11.63;;;5.17;;
17496;SDS011;62150;43.582;1.456;2024-02-16T19:17:41;10.20;;;4.60;;
17496;SDS011;62150;43.582;1.456;2024-02-16T19:20:09;10.80;;;4.23;;
17496;SDS011;62150;43.582;1.456;2024-02-16T19:22:39;13.23;;;3.83;;
17496;SDS011;62150;43.582;1.456;2024-02-16T19:25:07;10.77;;;4.77;;
17496;SDS011;62150;43.582;1.456;2024-02-16T19:27:34;11.00;;;4.50;;
17496;SDS011;62150;43.582;1.456;2024-02-16T19:30:02;12.10;;;4.00;;
17496;SDS011;62150;43.582;1.456;2024-02-16T19:32:31;8.30;;;3.30;;